createdAt,value
2019-06-26T00:00:21.093Z,1001.30
2019-06-26T00:01:21.109Z,1001.28
2019-06-26T00:02:21.091Z,1001.27
2019-06-26T00:03:21.078Z,1001.27
2019-06-26T00:04:21.059Z,1001.27
2019-06-26T00:05:21.087Z,1001.28
2019-06-26T00:06:21.033Z,1001.31
2019-06-26T00:07:21.019Z,1001.29
2019-06-26T00:08:21.021Z,1001.31
2019-06-26T00:09:21.029Z,1001.30
2019-06-26T00:10:20.996Z,1001.32
2019-06-26T00:11:21.073Z,1001.31
2019-06-26T00:12:20.976Z,1001.33
2019-06-26T00:13:26.178Z,1001.29
2019-06-26T00:14:21.949Z,1001.32
2019-06-26T00:15:20.955Z,1001.36
2019-06-26T00:16:20.931Z,1001.38
2019-06-26T00:17:20.971Z,1001.37
2019-06-26T00:18:20.929Z,1001.40
2019-06-26T00:19:20.897Z,1001.42
2019-06-26T00:20:20.875Z,1001.42
2019-06-26T00:21:22.032Z,1001.44
2019-06-26T00:22:20.899Z,1001.45
2019-06-26T00:23:20.896Z,1001.46
2019-06-26T00:24:20.842Z,1001.50
2019-06-26T00:25:20.825Z,1001.49
2019-06-26T00:26:20.886Z,1001.51
2019-06-26T00:27:20.818Z,1001.53
2019-06-26T00:28:20.838Z,1001.56
2019-06-26T00:29:20.850Z,1001.55
2019-06-26T00:30:20.793Z,1001.57
2019-06-26T00:31:20.771Z,1001.58
2019-06-26T00:32:20.755Z,1001.61
2019-06-26T00:33:20.738Z,1001.64
2019-06-26T00:34:20.745Z,1001.61
2019-06-26T00:35:20.754Z,1001.63
2019-06-26T00:36:20.795Z,1001.66
2019-06-26T00:37:20.700Z,1001.63
2019-06-26T00:38:20.697Z,1001.60
2019-06-26T00:39:20.687Z,1001.66
2019-06-26T00:40:20.666Z,1001.70
2019-06-26T00:41:20.710Z,1001.68
2019-06-26T00:42:20.636Z,1001.73
2019-06-26T00:43:20.644Z,1001.73
2019-06-26T00:44:20.621Z,1001.71
2019-06-26T00:45:20.619Z,1001.72
2019-06-26T00:46:20.591Z,1001.72
2019-06-26T00:47:20.623Z,1001.72
2019-06-26T00:48:20.575Z,1001.72
2019-06-26T00:49:20.561Z,1001.73
2019-06-26T00:50:20.551Z,1001.72
2019-06-26T00:51:20.555Z,1001.72
2019-06-26T00:52:20.538Z,1001.74
2019-06-26T00:53:20.763Z,1001.74
2019-06-26T00:54:20.518Z,1001.69
2019-06-26T00:55:20.524Z,1001.74
2019-06-26T00:56:20.494Z,1001.71
2019-06-26T00:57:20.495Z,1001.72
2019-06-26T00:58:20.473Z,1001.75
2019-06-26T00:59:20.500Z,1001.74
2019-06-26T01:00:20.450Z,1001.77
2019-06-26T01:01:20.444Z,1001.76
2019-06-26T01:02:20.415Z,1001.75
2019-06-26T01:03:20.416Z,1001.72
2019-06-26T01:04:20.403Z,1001.75
2019-06-26T01:05:20.434Z,1001.77
2019-06-26T01:06:20.376Z,1001.81
2019-06-26T01:07:20.372Z,1001.80
2019-06-26T01:08:20.390Z,1001.81
2019-06-26T01:09:20.351Z,1001.77
2019-06-26T01:10:20.338Z,1001.78
2019-06-26T01:11:21.652Z,1001.81
2019-06-26T01:12:20.313Z,1001.84
2019-06-26T01:13:20.308Z,1001.82
2019-06-26T01:14:20.293Z,1001.82
2019-06-26T01:15:20.282Z,1001.82
2019-06-26T01:16:20.269Z,1001.82
2019-06-26T01:17:20.330Z,1001.83
2019-06-26T01:18:20.242Z,1001.80
2019-06-26T01:19:20.235Z,1001.87
2019-06-26T01:20:20.234Z,1001.82
2019-06-26T01:21:20.275Z,1001.88
2019-06-26T01:22:20.222Z,1001.89
2019-06-26T01:23:20.240Z,1001.91
2019-06-26T01:24:20.181Z,1001.93
2019-06-26T01:25:20.181Z,1001.89
2019-06-26T01:26:20.155Z,1001.86
2019-06-26T01:27:20.177Z,1001.83
2019-06-26T01:28:20.151Z,1001.88
2019-06-26T01:29:20.154Z,1001.89
2019-06-26T01:30:20.119Z,1001.89
2019-06-26T01:31:20.108Z,1001.89
2019-06-26T01:32:20.115Z,1001.83
2019-06-26T01:33:20.088Z,1001.87
2019-06-26T01:34:20.070Z,1001.84
2019-06-26T01:35:20.107Z,1001.85
2019-06-26T01:36:20.089Z,1001.83
2019-06-26T01:37:20.039Z,1001.84
2019-06-26T01:38:20.024Z,1001.85
2019-06-26T01:39:20.010Z,1001.86
2019-06-26T01:40:20.005Z,1001.84
2019-06-26T01:41:20.038Z,1001.82
2019-06-26T01:42:19.982Z,1001.84
2019-06-26T01:43:19.970Z,1001.85
2019-06-26T01:44:19.954Z,1001.86
2019-06-26T01:45:19.948Z,1001.83
2019-06-26T01:46:19.938Z,1001.84
2019-06-26T01:47:19.970Z,1001.89
2019-06-26T01:48:19.909Z,1001.91
2019-06-26T01:49:19.953Z,1001.88
2019-06-26T01:50:19.897Z,1001.95
2019-06-26T01:51:19.879Z,1001.91
2019-06-26T01:52:19.876Z,1001.97
2019-06-26T01:53:19.898Z,1001.93
2019-06-26T01:54:19.846Z,1001.93
2019-06-26T01:55:19.850Z,1001.96
2019-06-26T01:56:19.825Z,1001.93
2019-06-26T01:57:19.811Z,1001.92
2019-06-26T01:58:19.806Z,1001.97
2019-06-26T01:59:19.838Z,1001.91
2019-06-26T02:00:19.779Z,1001.94
2019-06-26T02:01:19.766Z,1001.96
2019-06-26T02:02:19.761Z,1001.98
2019-06-26T02:03:19.784Z,1001.92
2019-06-26T02:04:19.734Z,1001.96
2019-06-26T02:05:19.759Z,1001.97
2019-06-26T02:06:19.707Z,1001.95
2019-06-26T02:07:19.697Z,1001.96
2019-06-26T02:08:19.684Z,1001.92
2019-06-26T02:09:19.679Z,1001.98
2019-06-26T02:10:19.693Z,1001.97
2019-06-26T02:11:19.712Z,1001.97
2019-06-26T02:12:19.650Z,1002.00
2019-06-26T02:13:19.639Z,1001.97
2019-06-26T02:14:30.450Z,1001.98
2019-06-26T02:15:20.653Z,1002.00
2019-06-26T02:16:19.610Z,1002.01
2019-06-26T02:17:19.626Z,1002.01
2019-06-26T02:18:19.578Z,1002.00
2019-06-26T02:19:19.624Z,1001.99
2019-06-26T02:20:19.567Z,1002.03
2019-06-26T02:21:19.542Z,1002.04
2019-06-26T02:22:19.556Z,1002.01
2019-06-26T02:23:19.581Z,1001.96
2019-06-26T02:24:19.530Z,1002.01
2019-06-26T02:25:19.507Z,1002.01
2019-06-26T02:26:19.488Z,1002.04
2019-06-26T02:27:19.474Z,1002.06
2019-06-26T02:28:19.496Z,1002.02
2019-06-26T02:29:19.537Z,1002.06
2019-06-26T02:30:19.442Z,1002.06
2019-06-26T02:31:19.451Z,1002.07
2019-06-26T02:32:19.428Z,1002.06
2019-06-26T02:33:19.411Z,1002.07
2019-06-26T02:34:19.400Z,1002.06
2019-06-26T02:35:19.438Z,1002.04
2019-06-26T02:36:19.371Z,1002.05
2019-06-26T02:37:19.358Z,1002.02
2019-06-26T02:38:19.375Z,1002.01
2019-06-26T02:39:19.346Z,1002.02
2019-06-26T02:40:19.339Z,1002.03
2019-06-26T02:41:19.353Z,1002.02
2019-06-26T02:42:19.309Z,1002.05
2019-06-26T02:43:19.309Z,1002.06
2019-06-26T02:44:19.291Z,1002.08
2019-06-26T02:45:19.277Z,1002.11
2019-06-26T02:46:19.254Z,1002.11
2019-06-26T02:47:20.956Z,1002.12
2019-06-26T02:48:19.255Z,1002.13
2019-06-26T02:49:19.254Z,1002.15
2019-06-26T02:50:19.221Z,1002.17
2019-06-26T02:51:19.203Z,1002.14
2019-06-26T02:52:19.216Z,1002.19
2019-06-26T02:53:19.213Z,1002.19
2019-06-26T02:54:19.176Z,1002.18
2019-06-26T02:55:19.180Z,1002.21
2019-06-26T02:56:19.157Z,1002.20
2019-06-26T02:57:19.139Z,1002.18
2019-06-26T02:58:19.141Z,1002.22
2019-06-26T02:59:19.169Z,1002.21
2019-06-26T03:00:19.107Z,1002.20
2019-06-26T03:01:19.107Z,1002.24
2019-06-26T03:02:19.088Z,1002.21
2019-06-26T03:03:19.072Z,1002.23
2019-06-26T03:04:19.103Z,1002.21
2019-06-26T03:05:19.085Z,1002.22
2019-06-26T03:06:19.043Z,1002.21
2019-06-26T03:07:19.071Z,1002.19
2019-06-26T03:08:19.017Z,1002.24
2019-06-26T03:09:19.014Z,1002.24
2019-06-26T03:10:18.995Z,1002.27
2019-06-26T03:11:19.023Z,1002.29
2019-06-26T03:12:18.978Z,1002.34
2019-06-26T03:13:18.956Z,1002.37
2019-06-26T03:14:18.963Z,1002.35
2019-06-26T03:15:18.940Z,1002.38
2019-06-26T03:16:18.928Z,1002.39
2019-06-26T03:17:18.980Z,1002.42
2019-06-26T03:18:18.912Z,1002.39
2019-06-26T03:19:18.902Z,1002.41
2019-06-26T03:20:18.873Z,1002.46
2019-06-26T03:21:18.869Z,1002.44
2019-06-26T03:22:18.914Z,1002.48
2019-06-26T03:23:19.038Z,1002.46
2019-06-26T03:24:18.832Z,1002.45
2019-06-26T03:25:18.826Z,1002.44
2019-06-26T03:26:18.827Z,1002.46
2019-06-26T03:27:18.809Z,1002.52
2019-06-26T03:28:18.798Z,1002.55
2019-06-26T03:29:18.851Z,1002.56
2019-06-26T03:30:18.788Z,1002.62
2019-06-26T03:31:18.756Z,1002.57
2019-06-26T03:32:18.741Z,1002.56
2019-06-26T03:33:18.733Z,1002.58
2019-06-26T03:34:18.836Z,1002.59
2019-06-26T03:35:18.773Z,1002.63
2019-06-26T03:36:18.699Z,1002.58
2019-06-26T03:37:18.706Z,1002.66
2019-06-26T03:38:18.679Z,1002.64
2019-06-26T03:39:18.684Z,1002.63
2019-06-26T03:40:18.656Z,1002.62
2019-06-26T03:41:18.711Z,1002.61
2019-06-26T03:42:18.663Z,1002.61
2019-06-26T03:43:18.620Z,1002.64
2019-06-26T03:44:18.649Z,1002.66
2019-06-26T03:45:25.671Z,1002.69
2019-06-26T03:46:19.623Z,1002.65
2019-06-26T03:47:18.641Z,1002.69
2019-06-26T03:48:18.576Z,1002.66
2019-06-26T03:49:18.574Z,1002.67
2019-06-26T03:50:18.563Z,1002.67
2019-06-26T03:51:18.595Z,1002.72
2019-06-26T03:52:18.574Z,1002.71
2019-06-26T03:53:18.540Z,1002.70
2019-06-26T03:54:18.504Z,1002.73
2019-06-26T03:55:18.484Z,1002.71
2019-06-26T03:56:18.477Z,1002.70
2019-06-26T03:57:18.458Z,1002.67
2019-06-26T03:58:18.663Z,1002.66
2019-06-26T03:59:18.433Z,1002.67
2019-06-26T04:00:18.424Z,1002.67
2019-06-26T04:01:18.492Z,1002.66
2019-06-26T04:02:18.408Z,1002.70
2019-06-26T04:03:18.405Z,1002.70
2019-06-26T04:04:18.430Z,1002.67
2019-06-26T04:05:18.370Z,1002.70
2019-06-26T04:06:18.362Z,1002.68
2019-06-26T04:07:18.345Z,1002.75
2019-06-26T04:08:18.358Z,1002.72
2019-06-26T04:09:18.326Z,1002.74
2019-06-26T04:10:18.372Z,1002.70
2019-06-26T04:11:18.320Z,1002.72
2019-06-26T04:12:18.292Z,1002.73
2019-06-26T04:13:18.281Z,1002.69
2019-06-26T04:14:18.274Z,1002.75
2019-06-26T04:15:18.257Z,1002.72
2019-06-26T04:16:18.304Z,1002.75
2019-06-26T04:17:18.258Z,1002.76
2019-06-26T04:18:18.221Z,1002.75
2019-06-26T04:19:18.208Z,1002.77
2019-06-26T04:20:18.199Z,1002.77
2019-06-26T04:21:18.189Z,1002.75
2019-06-26T04:22:18.238Z,1002.74
2019-06-26T04:23:18.169Z,1002.78
2019-06-26T04:24:18.155Z,1002.79
2019-06-26T04:25:18.148Z,1002.76
2019-06-26T04:26:18.134Z,1002.85
2019-06-26T04:27:18.121Z,1002.86
2019-06-26T04:28:18.177Z,1002.84
2019-06-26T04:29:18.097Z,1002.89
2019-06-26T04:30:18.092Z,1002.88
2019-06-26T04:31:18.101Z,1002.91
2019-06-26T04:32:18.069Z,1002.85
2019-06-26T04:33:18.058Z,1002.89
2019-06-26T04:34:18.259Z,1002.90
2019-06-26T04:35:18.034Z,1002.91
2019-06-26T04:36:18.020Z,1002.93
2019-06-26T04:37:18.009Z,1002.95
2019-06-26T04:38:18.007Z,1002.92
2019-06-26T04:39:17.987Z,1002.88
2019-06-26T04:40:20.316Z,1002.92
2019-06-26T04:41:17.965Z,1002.93
2019-06-26T04:42:17.958Z,1002.93
2019-06-26T04:43:17.943Z,1002.97
2019-06-26T04:44:17.986Z,1002.98
2019-06-26T04:45:17.943Z,1002.92
2019-06-26T04:46:17.979Z,1002.95
2019-06-26T04:47:17.904Z,1003.01
2019-06-26T04:48:17.895Z,1002.98
2019-06-26T04:49:17.890Z,1002.96
2019-06-26T04:50:17.864Z,1002.96
2019-06-26T04:51:17.859Z,1002.96
2019-06-26T04:52:17.909Z,1002.98
2019-06-26T04:53:17.838Z,1003.02
2019-06-26T04:54:17.821Z,1002.99
2019-06-26T04:55:17.815Z,1003.00
2019-06-26T04:56:17.808Z,1002.98
2019-06-26T04:57:17.789Z,1002.99
2019-06-26T04:58:17.923Z,1002.96
2019-06-26T04:59:17.772Z,1002.99
2019-06-26T05:00:21.566Z,1003.04
2019-06-26T05:01:17.751Z,1003.01
2019-06-26T05:02:17.768Z,1002.99
2019-06-26T05:03:17.728Z,1003.03
2019-06-26T05:04:17.776Z,1003.03
2019-06-26T05:05:17.703Z,1003.06
2019-06-26T05:06:17.694Z,1003.06
2019-06-26T05:07:17.680Z,1003.06
2019-06-26T05:08:17.669Z,1003.08
2019-06-26T05:09:17.744Z,1003.11
2019-06-26T05:10:17.721Z,1003.08
2019-06-26T05:11:17.641Z,1003.04
2019-06-26T05:12:17.631Z,1003.10
2019-06-26T05:13:17.615Z,1003.10
2019-06-26T05:14:17.606Z,1003.12
2019-06-26T05:15:17.596Z,1003.14
2019-06-26T05:16:20.250Z,1003.14
2019-06-26T05:17:17.575Z,1003.16
2019-06-26T05:18:17.563Z,1003.17
2019-06-26T05:19:17.555Z,1003.16
2019-06-26T05:20:17.545Z,1003.20
2019-06-26T05:21:17.529Z,1003.17
2019-06-26T05:22:17.585Z,1003.21
2019-06-26T05:23:17.508Z,1003.23
2019-06-26T05:24:17.509Z,1003.21
2019-06-26T05:25:17.491Z,1003.20
2019-06-26T05:26:17.527Z,1003.28
2019-06-26T05:27:17.472Z,1003.21
2019-06-26T05:28:17.535Z,1003.26
2019-06-26T05:29:17.447Z,1003.26
2019-06-26T05:30:17.434Z,1003.30
2019-06-26T05:31:17.433Z,1003.34
2019-06-26T05:32:17.411Z,1003.32
2019-06-26T05:33:17.401Z,1003.34
2019-06-26T05:34:17.462Z,1003.39
2019-06-26T05:35:17.385Z,1003.35
2019-06-26T05:36:17.380Z,1003.42
2019-06-26T05:37:17.367Z,1003.39
2019-06-26T05:38:17.346Z,1003.41
2019-06-26T05:39:17.339Z,1003.39
2019-06-26T05:40:17.405Z,1003.35
2019-06-26T05:41:17.320Z,1003.35
2019-06-26T05:42:17.303Z,1003.40
2019-06-26T05:43:17.304Z,1003.38
2019-06-26T05:44:17.288Z,1003.36
2019-06-26T05:45:17.272Z,1003.44
2019-06-26T05:46:30.011Z,1003.45
2019-06-26T05:47:18.255Z,1003.43
2019-06-26T05:48:17.244Z,1003.45
2019-06-26T05:49:17.279Z,1003.51
2019-06-26T05:50:17.952Z,1003.44
2019-06-26T05:51:17.208Z,1003.50
2019-06-26T05:52:17.247Z,1003.54
2019-06-26T05:53:17.247Z,1003.53
2019-06-26T05:54:17.183Z,1003.52
2019-06-26T05:55:17.163Z,1003.55
2019-06-26T05:56:17.162Z,1003.54
2019-06-26T05:57:17.144Z,1003.53
2019-06-26T05:58:17.190Z,1003.54
2019-06-26T05:59:17.144Z,1003.51
2019-06-26T06:00:17.107Z,1003.54
2019-06-26T06:01:17.097Z,1003.53
2019-06-26T06:02:17.086Z,1003.58
2019-06-26T06:03:17.073Z,1003.59
2019-06-26T06:04:17.101Z,1003.58
2019-06-26T06:05:17.067Z,1003.57
2019-06-26T06:06:17.039Z,1003.57
2019-06-26T06:07:17.025Z,1003.58
2019-06-26T06:08:17.016Z,1003.61
2019-06-26T06:09:17.022Z,1003.62
2019-06-26T06:10:17.189Z,1003.64
2019-06-26T06:11:16.985Z,1003.62
2019-06-26T06:12:16.971Z,1003.63
2019-06-26T06:13:16.957Z,1003.61
2019-06-26T06:14:16.946Z,1003.67
2019-06-26T06:15:16.935Z,1003.60
2019-06-26T06:16:16.971Z,1003.62
2019-06-26T06:17:16.932Z,1003.68
2019-06-26T06:18:17.004Z,1003.66
2019-06-26T06:19:16.901Z,1003.65
2019-06-26T06:20:16.899Z,1003.61
2019-06-26T06:21:16.981Z,1003.62
2019-06-26T06:22:16.923Z,1003.64
2019-06-26T06:23:16.854Z,1003.59
2019-06-26T06:24:16.834Z,1003.61
2019-06-26T06:25:16.847Z,1003.60
2019-06-26T06:26:16.904Z,1003.55
2019-06-26T06:27:16.821Z,1003.58
2019-06-26T06:28:16.839Z,1003.61
2019-06-26T06:29:16.802Z,1003.61
2019-06-26T06:30:16.793Z,1003.61
2019-06-26T06:31:16.756Z,1003.63
2019-06-26T06:32:16.754Z,1003.65
2019-06-26T06:33:16.742Z,1003.64
2019-06-26T06:34:16.767Z,1003.65
2019-06-26T06:35:16.712Z,1003.68
2019-06-26T06:36:16.704Z,1003.71
2019-06-26T06:37:16.689Z,1003.69
2019-06-26T06:38:16.678Z,1003.72
2019-06-26T06:39:16.677Z,1003.74
2019-06-26T06:40:16.841Z,1003.79
2019-06-26T06:41:16.656Z,1003.73
2019-06-26T06:42:16.634Z,1003.77
2019-06-26T06:43:16.623Z,1003.73
2019-06-26T06:44:16.617Z,1003.74
2019-06-26T06:45:16.621Z,1003.77
2019-06-26T06:46:16.651Z,1003.78
2019-06-26T06:47:16.580Z,1003.82
2019-06-26T06:48:16.572Z,1003.84
2019-06-26T06:49:16.563Z,1003.85
2019-06-26T06:50:16.548Z,1003.83
2019-06-26T06:51:16.556Z,1003.88
2019-06-26T06:52:16.920Z,1003.91
2019-06-26T06:53:16.513Z,1003.92
2019-06-26T06:54:16.537Z,1003.93
2019-06-26T06:55:16.494Z,1003.96
2019-06-26T06:56:16.479Z,1003.97
2019-06-26T06:57:16.473Z,1003.99
2019-06-26T06:58:16.523Z,1003.99
2019-06-26T06:59:16.451Z,1004.03
2019-06-26T07:00:16.813Z,1004.01
2019-06-26T07:01:16.424Z,1004.06
2019-06-26T07:02:16.411Z,1004.07
2019-06-26T07:03:16.416Z,1004.11
2019-06-26T07:04:16.442Z,1004.11
2019-06-26T07:05:16.384Z,1004.10
2019-06-26T07:06:16.372Z,1004.13
2019-06-26T07:07:16.364Z,1004.13
2019-06-26T07:08:16.347Z,1004.16
2019-06-26T07:09:16.345Z,1004.14
2019-06-26T07:10:16.384Z,1004.15
2019-06-26T07:11:16.325Z,1004.17
2019-06-26T07:12:16.396Z,1004.16
2019-06-26T07:13:16.303Z,1004.15
2019-06-26T07:14:16.298Z,1004.14
2019-06-26T07:15:16.272Z,1004.10
2019-06-26T07:16:16.325Z,1004.17
2019-06-26T07:17:21.100Z,1004.20
2019-06-26T07:18:17.240Z,1004.19
2019-06-26T07:19:16.242Z,1004.15
2019-06-26T07:20:16.240Z,1004.18
2019-06-26T07:21:16.214Z,1004.21
2019-06-26T07:22:16.230Z,1004.21
2019-06-26T07:23:16.207Z,1004.21
2019-06-26T07:24:16.178Z,1004.22
2019-06-26T07:25:16.170Z,1004.25
2019-06-26T07:26:16.169Z,1004.21
2019-06-26T07:27:16.158Z,1004.26
2019-06-26T07:28:16.270Z,1004.21
2019-06-26T07:29:16.123Z,1004.29
2019-06-26T07:30:16.117Z,1004.31
2019-06-26T07:31:16.100Z,1004.27
2019-06-26T07:32:16.101Z,1004.23
2019-06-26T07:33:16.090Z,1004.30
2019-06-26T07:34:16.107Z,1004.31
2019-06-26T07:35:16.072Z,1004.36
2019-06-26T07:36:16.045Z,1004.35
2019-06-26T07:37:16.042Z,1004.40
2019-06-26T07:38:16.027Z,1004.39
2019-06-26T07:39:16.017Z,1004.42
2019-06-26T07:40:16.090Z,1004.43
2019-06-26T07:41:16.011Z,1004.42
2019-06-26T07:42:16.046Z,1004.42
2019-06-26T07:43:16.738Z,1004.48
2019-06-26T07:44:16.002Z,1004.46
2019-06-26T07:45:15.950Z,1004.48
2019-06-26T07:46:15.988Z,1004.47
2019-06-26T07:47:23.059Z,1004.47
2019-06-26T07:48:16.919Z,1004.48
2019-06-26T07:49:15.942Z,1004.51
2019-06-26T07:50:15.907Z,1004.47
2019-06-26T07:51:15.914Z,1004.45
2019-06-26T07:52:15.920Z,1004.48
2019-06-26T07:53:15.865Z,1004.48
2019-06-26T07:54:15.865Z,1004.44
2019-06-26T07:55:15.869Z,1004.42
2019-06-26T07:56:15.827Z,1004.45
2019-06-26T07:57:15.823Z,1004.42
2019-06-26T07:58:15.858Z,1004.40
2019-06-26T07:59:15.840Z,1004.39
2019-06-26T08:00:15.783Z,1004.37
2019-06-26T08:01:15.776Z,1004.38
2019-06-26T08:02:15.768Z,1004.40
2019-06-26T08:03:15.755Z,1004.39
2019-06-26T08:04:15.982Z,1004.40
2019-06-26T08:05:15.743Z,1004.45
2019-06-26T08:06:15.726Z,1004.43
2019-06-26T08:07:15.707Z,1004.46
2019-06-26T08:08:15.707Z,1004.45
2019-06-26T08:09:15.696Z,1004.39
2019-06-26T08:10:15.804Z,1004.43
2019-06-26T08:11:15.667Z,1004.42
2019-06-26T08:12:15.660Z,1004.43
2019-06-26T08:13:15.729Z,1004.43
2019-06-26T08:14:15.631Z,1004.40
2019-06-26T08:15:15.625Z,1004.40
2019-06-26T08:16:15.675Z,1004.44
2019-06-26T08:17:15.616Z,1004.40
2019-06-26T08:18:15.596Z,1004.39
2019-06-26T08:19:15.571Z,1004.43
2019-06-26T08:20:15.569Z,1004.39
2019-06-26T08:21:15.552Z,1004.40
2019-06-26T08:22:15.598Z,1004.37
2019-06-26T08:23:15.606Z,1004.37
2019-06-26T08:24:15.522Z,1004.33
2019-06-26T08:25:15.517Z,1004.37
2019-06-26T08:26:15.501Z,1004.36
2019-06-26T08:27:15.488Z,1004.33
2019-06-26T08:28:15.516Z,1004.35
2019-06-26T08:29:15.489Z,1004.33
2019-06-26T08:30:15.463Z,1004.38
2019-06-26T08:31:15.448Z,1004.27
2019-06-26T08:32:15.435Z,1004.35
2019-06-26T08:33:15.427Z,1004.35
2019-06-26T08:34:15.441Z,1004.36
2019-06-26T08:35:15.485Z,1004.39
2019-06-26T08:36:15.390Z,1004.42
2019-06-26T08:37:15.431Z,1004.43
2019-06-26T08:38:15.877Z,1004.45
2019-06-26T08:39:15.377Z,1004.39
2019-06-26T08:40:15.393Z,1004.40
2019-06-26T08:41:15.357Z,1004.41
2019-06-26T08:42:15.336Z,1004.43
2019-06-26T08:43:15.313Z,1004.46
2019-06-26T08:44:15.313Z,1004.47
2019-06-26T08:45:15.292Z,1004.49
2019-06-26T08:46:15.349Z,1004.45
2019-06-26T08:47:15.275Z,1004.42
2019-06-26T08:48:23.234Z,1004.43
2019-06-26T08:49:25.480Z,1004.47
2019-06-26T08:50:16.249Z,1004.48
2019-06-26T08:51:15.228Z,1004.50
2019-06-26T08:52:15.270Z,1004.48
2019-06-26T08:53:15.211Z,1004.50
2019-06-26T08:54:15.197Z,1004.50
2019-06-26T08:55:15.211Z,1004.54
2019-06-26T08:56:15.178Z,1004.57
2019-06-26T08:57:15.637Z,1004.57
2019-06-26T08:58:15.190Z,1004.60
2019-06-26T08:59:15.140Z,1004.59
2019-06-26T09:00:15.146Z,1004.58
2019-06-26T09:01:15.203Z,1004.60
2019-06-26T09:02:15.116Z,1004.50
2019-06-26T09:03:15.099Z,1004.55
2019-06-26T09:04:15.146Z,1004.59
2019-06-26T09:05:15.080Z,1004.52
2019-06-26T09:06:15.084Z,1004.58
2019-06-26T09:07:15.068Z,1004.59
2019-06-26T09:08:15.145Z,1004.58
2019-06-26T09:09:15.041Z,1004.60
2019-06-26T09:10:15.084Z,1004.63
2019-06-26T09:11:15.062Z,1004.60
2019-06-26T09:12:15.027Z,1004.61
2019-06-26T09:13:15.030Z,1004.60
2019-06-26T09:14:15.010Z,1004.58
2019-06-26T09:15:14.980Z,1004.57
2019-06-26T09:16:15.059Z,1004.53
2019-06-26T09:17:15.004Z,1004.53
2019-06-26T09:18:14.957Z,1004.56
2019-06-26T09:19:14.955Z,1004.54
2019-06-26T09:20:14.925Z,1004.57
2019-06-26T09:21:14.999Z,1004.50
2019-06-26T09:22:14.939Z,1004.49
2019-06-26T09:23:14.897Z,1004.51
2019-06-26T09:24:14.879Z,1004.50
2019-06-26T09:25:22.173Z,1004.47
2019-06-26T09:26:15.871Z,1004.50
2019-06-26T09:27:15.324Z,1004.52
2019-06-26T09:28:14.890Z,1004.55
2019-06-26T09:29:14.830Z,1004.49
2019-06-26T09:30:14.817Z,1004.47
2019-06-26T09:31:14.820Z,1004.45
2019-06-26T09:32:14.792Z,1004.39
2019-06-26T09:33:14.790Z,1004.45
2019-06-26T09:34:14.883Z,1004.45
2019-06-26T09:35:14.769Z,1004.43
2019-06-26T09:36:14.753Z,1004.44
2019-06-26T09:37:14.756Z,1004.43
2019-06-26T09:38:14.736Z,1004.43
2019-06-26T09:39:14.718Z,1004.50
2019-06-26T09:40:14.757Z,1004.50
2019-06-26T09:41:14.702Z,1004.48
2019-06-26T09:42:14.697Z,1004.46
2019-06-26T09:43:14.701Z,1004.52
2019-06-26T09:44:14.723Z,1004.50
2019-06-26T09:45:14.659Z,1004.48
2019-06-26T09:46:14.702Z,1004.46
2019-06-26T09:47:15.660Z,1004.46
2019-06-26T09:48:14.628Z,1004.50
2019-06-26T09:49:14.619Z,1004.50
2019-06-26T09:50:14.644Z,1004.45
2019-06-26T09:51:14.594Z,1004.40
2019-06-26T09:52:14.637Z,1004.40
2019-06-26T09:53:14.785Z,1004.42
2019-06-26T09:54:14.583Z,1004.43
2019-06-26T09:55:14.553Z,1004.45
2019-06-26T09:56:14.544Z,1004.46
2019-06-26T09:57:14.564Z,1004.44
2019-06-26T09:58:14.554Z,1004.46
2019-06-26T09:59:14.527Z,1004.45
2019-06-26T10:00:14.538Z,1004.45
2019-06-26T10:01:14.496Z,1004.40
2019-06-26T10:02:14.485Z,1004.41
2019-06-26T10:03:14.471Z,1004.42
2019-06-26T10:04:14.584Z,1004.37
2019-06-26T10:05:14.460Z,1004.45
2019-06-26T10:06:14.478Z,1004.41
2019-06-26T10:07:14.514Z,1004.47
2019-06-26T10:08:14.446Z,1004.45
2019-06-26T10:09:14.429Z,1004.48
2019-06-26T10:10:14.485Z,1004.49
2019-06-26T10:11:14.402Z,1004.50
2019-06-26T10:12:14.376Z,1004.49
2019-06-26T10:13:14.445Z,1004.48
2019-06-26T10:14:14.394Z,1004.48
2019-06-26T10:15:14.377Z,1004.50
2019-06-26T10:16:14.462Z,1004.53
2019-06-26T10:17:14.351Z,1004.53
2019-06-26T10:18:14.322Z,1004.50
2019-06-26T10:19:14.360Z,1004.51
2019-06-26T10:20:14.356Z,1004.54
2019-06-26T10:21:14.285Z,1004.53
2019-06-26T10:22:14.384Z,1004.53
2019-06-26T10:23:14.277Z,1004.52
2019-06-26T10:24:14.261Z,1004.51
2019-06-26T10:25:14.256Z,1004.50
2019-06-26T10:26:14.291Z,1004.51
2019-06-26T10:27:14.286Z,1004.55
2019-06-26T10:28:14.268Z,1004.57
2019-06-26T10:29:14.220Z,1004.59
2019-06-26T10:30:14.321Z,1004.63
2019-06-26T10:31:17.470Z,1004.60
2019-06-26T10:32:14.183Z,1004.64
2019-06-26T10:33:14.158Z,1004.63
2019-06-26T10:34:14.219Z,1004.59
2019-06-26T10:35:14.211Z,1004.58
2019-06-26T10:36:14.152Z,1004.56
2019-06-26T10:37:14.128Z,1004.59
2019-06-26T10:38:14.183Z,1004.58
2019-06-26T10:39:14.084Z,1004.59
2019-06-26T10:40:16.329Z,1004.63
2019-06-26T10:41:14.129Z,1004.65
2019-06-26T10:42:14.049Z,1004.61
2019-06-26T10:43:14.050Z,1004.66
2019-06-26T10:44:14.030Z,1004.65
2019-06-26T10:45:14.032Z,1004.65
2019-06-26T10:46:14.083Z,1004.64
2019-06-26T10:47:14.006Z,1004.64
2019-06-26T10:48:13.988Z,1004.65
2019-06-26T10:49:26.619Z,1004.70
2019-06-26T10:50:14.962Z,1004.68
2019-06-26T10:51:13.979Z,1004.73
2019-06-26T10:52:14.154Z,1004.70
2019-06-26T10:53:13.971Z,1004.71
2019-06-26T10:54:13.941Z,1004.74
2019-06-26T10:55:13.917Z,1004.73
2019-06-26T10:56:13.902Z,1004.71
2019-06-26T10:57:14.091Z,1004.71
2019-06-26T10:58:13.950Z,1004.73
2019-06-26T10:59:13.873Z,1004.76
2019-06-26T11:00:13.891Z,1004.69
2019-06-26T11:01:13.848Z,1004.74
2019-06-26T11:02:16.871Z,1004.78
2019-06-26T11:03:13.904Z,1004.83
2019-06-26T11:04:13.869Z,1004.83
2019-06-26T11:05:13.810Z,1004.80
2019-06-26T11:06:13.800Z,1004.81
2019-06-26T11:07:13.785Z,1004.80
2019-06-26T11:08:13.799Z,1004.85
2019-06-26T11:09:13.774Z,1004.77
2019-06-26T11:10:13.808Z,1004.80
2019-06-26T11:11:13.754Z,1004.84
2019-06-26T11:12:13.740Z,1004.84
2019-06-26T11:13:13.726Z,1004.82
2019-06-26T11:14:13.748Z,1004.81
2019-06-26T11:15:13.707Z,1004.80
2019-06-26T11:16:13.754Z,1004.80
2019-06-26T11:17:13.696Z,1004.80
2019-06-26T11:18:13.701Z,1004.78
2019-06-26T11:19:13.664Z,1004.75
2019-06-26T11:20:13.671Z,1004.82
2019-06-26T11:21:13.646Z,1004.80
2019-06-26T11:22:13.685Z,1004.77
2019-06-26T11:23:13.621Z,1004.79
2019-06-26T11:24:13.609Z,1004.79
2019-06-26T11:25:13.600Z,1004.78
2019-06-26T11:26:13.617Z,1004.75
2019-06-26T11:27:13.578Z,1004.78
2019-06-26T11:28:13.614Z,1004.82
2019-06-26T11:29:13.636Z,1004.81
2019-06-26T11:30:13.549Z,1004.79
2019-06-26T11:31:13.536Z,1004.76
2019-06-26T11:32:13.565Z,1004.85
2019-06-26T11:33:13.515Z,1004.78
2019-06-26T11:34:13.536Z,1004.80
2019-06-26T11:35:13.579Z,1004.84
2019-06-26T11:36:13.491Z,1004.84
2019-06-26T11:37:13.476Z,1004.84
2019-06-26T11:38:13.481Z,1004.88
2019-06-26T11:39:13.476Z,1004.87
2019-06-26T11:40:13.524Z,1004.84
2019-06-26T11:41:13.432Z,1004.90
2019-06-26T11:42:13.429Z,1004.85
2019-06-26T11:43:13.436Z,1004.86
2019-06-26T11:44:13.413Z,1004.83
2019-06-26T11:45:13.441Z,1004.81
2019-06-26T11:46:13.459Z,1004.87
2019-06-26T11:47:13.373Z,1004.86
2019-06-26T11:48:13.400Z,1004.85
2019-06-26T11:49:13.355Z,1004.86
2019-06-26T11:50:13.348Z,1004.86
2019-06-26T11:51:13.360Z,1004.84
2019-06-26T11:52:13.373Z,1004.83
2019-06-26T11:53:13.319Z,1004.81
2019-06-26T11:54:13.341Z,1004.86
2019-06-26T11:55:13.310Z,1004.80
2019-06-26T11:56:13.294Z,1004.82
2019-06-26T11:57:13.301Z,1004.82
2019-06-26T11:58:13.463Z,1004.82
2019-06-26T11:59:13.258Z,1004.83
2019-06-26T12:00:13.243Z,1004.82
2019-06-26T12:01:13.255Z,1004.85
2019-06-26T12:02:13.252Z,1004.84
2019-06-26T12:03:13.498Z,1004.84
2019-06-26T12:04:13.270Z,1004.84
2019-06-26T12:05:13.196Z,1004.82